createdAt,value
2018-04-28T00:01:24.936Z,84.90
2018-04-28T00:03:52.469Z,85.00
2018-04-28T00:06:19.969Z,85.20
2018-04-28T00:08:47.490Z,85.00
2018-04-28T00:11:14.989Z,85.30
2018-04-28T00:13:42.513Z,85.40
2018-04-28T00:16:11.921Z,85.30
2018-04-28T00:18:40.241Z,85.40
2018-04-28T00:21:07.742Z,85.40
2018-04-28T00:23:49.077Z,85.20
2018-04-28T00:26:16.577Z,85.40
2018-04-28T00:28:44.074Z,85.40
2018-04-28T00:34:12.313Z,85.20
2018-04-28T00:37:04.121Z,84.90
2018-04-28T00:39:33.417Z,84.80
2018-04-28T00:42:00.938Z,84.60
2018-04-28T00:44:30.353Z,84.80
2018-04-28T00:47:08.837Z,84.50
2018-04-28T00:49:36.333Z,84.00
2018-04-28T00:52:03.896Z,84.30
2018-04-28T00:54:35.641Z,84.50
2018-04-28T00:57:16.033Z,84.50
2018-04-28T00:59:45.333Z,84.90
2018-04-28T01:02:13.614Z,84.60
2018-04-28T01:04:44.902Z,84.40
2018-04-28T01:07:16.913Z,84.70
2018-04-28T01:09:44.433Z,84.60
2018-04-28T01:12:11.929Z,85.00
2018-04-28T01:14:41.857Z,84.90
2018-04-28T01:17:21.101Z,84.80
2018-04-28T01:19:50.817Z,86.10
2018-04-28T01:22:26.734Z,85.40
2018-04-28T01:24:54.252Z,85.40
2018-04-28T01:27:28.453Z,85.20
2018-04-28T01:33:27.321Z,85.90
2018-04-28T01:38:50.457Z,85.90
2018-04-28T01:41:39.573Z,86.20
2018-04-28T01:44:15.681Z,86.00
2018-04-28T01:46:46.896Z,86.40
2018-04-28T01:49:30.869Z,86.70
2018-04-28T01:51:59.262Z,86.70
2018-04-28T01:57:23.334Z,87.10
2018-04-28T02:00:04.205Z,87.20
2018-04-28T02:02:47.361Z,87.30
2018-04-28T02:08:23.350Z,87.40
2018-04-28T02:10:52.573Z,87.50
2018-04-28T02:13:31.901Z,87.40
2018-04-28T02:16:02.245Z,88.10
2018-04-28T02:22:00.097Z,88.90
2018-04-28T02:24:34.329Z,88.90
2018-04-28T02:27:05.822Z,88.80
2018-04-28T02:29:34.952Z,89.00
2018-04-28T02:32:21.005Z,88.90
2018-04-28T02:34:49.953Z,88.90
2018-04-28T02:40:44.349Z,89.50
2018-04-28T02:43:14.763Z,90.00
2018-04-28T02:45:46.842Z,90.10
2018-04-28T02:51:34.313Z,90.20
2018-04-28T02:54:05.505Z,90.30
2018-04-28T02:59:53.809Z,90.70
2018-04-28T03:02:24.892Z,91.00
2018-04-28T03:04:56.871Z,91.30
2018-04-28T03:07:37.213Z,91.60
2018-04-28T03:13:02.441Z,91.70
2018-04-28T03:15:29.938Z,91.90
2018-04-28T03:17:59.869Z,92.00
2018-04-28T03:20:30.285Z,92.20
2018-04-28T03:23:00.326Z,92.20
2018-04-28T03:25:41.537Z,92.10
2018-04-28T03:28:18.025Z,92.20
2018-04-28T03:30:56.901Z,92.40
2018-04-28T03:33:29.873Z,92.40
2018-04-28T03:36:01.017Z,92.40
2018-04-28T03:38:48.334Z,92.50
2018-04-28T03:41:21.421Z,92.60
2018-04-28T03:43:50.938Z,92.50
2018-04-28T03:46:24.097Z,92.70
2018-04-28T03:48:53.785Z,92.80
2018-04-28T03:51:34.688Z,92.80
2018-04-28T03:54:05.093Z,92.90
2018-04-28T03:56:47.209Z,93.10
2018-04-28T03:59:26.816Z,93.00
2018-04-28T04:05:06.437Z,93.40
2018-04-28T04:07:40.720Z,93.30
2018-04-28T04:10:30.761Z,93.30
2018-04-28T04:12:59.753Z,93.30
2018-04-28T04:15:47.888Z,93.30
2018-04-28T04:18:21.409Z,93.40
2018-04-28T04:20:53.465Z,93.40
2018-04-28T04:26:44.241Z,93.40
2018-04-28T04:29:24.366Z,93.40
2018-04-28T04:32:09.445Z,93.80
2018-04-28T04:37:49.825Z,93.20
2018-04-28T04:43:39.725Z,93.30
2018-04-28T04:46:26.044Z,93.30
2018-04-28T04:48:55.269Z,93.30
2018-04-28T04:51:49.476Z,93.30
2018-04-28T04:54:23.605Z,93.30
2018-04-28T04:56:59.724Z,93.30
2018-04-28T04:59:43.837Z,93.30
2018-04-28T05:02:16.824Z,93.30
2018-04-28T05:05:04.597Z,93.30
2018-04-28T05:07:38.624Z,93.30
2018-04-28T05:10:13.061Z,93.50
2018-04-28T05:16:06.582Z,93.70
2018-04-28T05:18:46.900Z,93.70
2018-04-28T05:24:39.946Z,93.70
2018-04-28T05:27:25.914Z,93.60
2018-04-28T05:30:15.745Z,93.90
2018-04-28T05:36:00.531Z,93.70
2018-04-28T05:38:37.695Z,93.80
2018-04-28T05:41:27.930Z,93.90
2018-04-28T05:44:07.345Z,93.80
2018-04-28T05:46:53.535Z,93.70
2018-04-28T05:49:38.899Z,93.50
2018-04-28T05:52:19.085Z,93.50
2018-04-28T05:55:06.297Z,93.60
2018-04-28T05:57:49.658Z,93.70
2018-04-28T06:00:29.096Z,93.90
2018-04-28T06:03:13.316Z,93.90
2018-04-28T06:08:50.085Z,93.20
2018-04-28T06:11:39.127Z,93.30
2018-04-28T06:14:08.432Z,93.10
2018-04-28T06:16:37.498Z,93.00
2018-04-28T06:19:13.853Z,93.10
2018-04-28T06:21:41.354Z,93.00
2018-04-28T06:24:08.849Z,93.00
2018-04-28T06:26:36.365Z,93.20
2018-04-28T06:29:04.628Z,93.10
2018-04-28T06:31:32.913Z,93.10
2018-04-28T06:34:01.182Z,93.10
2018-04-28T06:36:28.754Z,93.10
2018-04-28T06:38:57.069Z,92.70
2018-04-28T06:41:24.592Z,92.70
2018-04-28T06:43:52.853Z,92.90
2018-04-28T06:46:21.118Z,92.80
2018-04-28T06:48:49.405Z,92.60
2018-04-28T06:51:17.669Z,92.30
2018-04-28T06:53:45.189Z,92.30
2018-04-28T06:56:12.685Z,92.30
2018-04-28T06:58:40.284Z,92.30
2018-04-28T07:01:07.720Z,91.90
2018-04-28T07:03:36.013Z,91.90
2018-04-28T07:06:04.281Z,91.70
2018-04-28T07:08:32.546Z,92.00
2018-04-28T07:11:00.830Z,92.30
2018-04-28T07:13:29.092Z,92.20
2018-04-28T07:15:56.609Z,92.20
2018-04-28T07:18:24.108Z,91.10
2018-04-28T07:20:51.627Z,91.40
2018-04-28T07:23:19.130Z,91.10
2018-04-28T07:25:46.644Z,90.80
2018-04-28T07:28:14.145Z,90.40
2018-04-28T07:30:42.425Z,90.40
2018-04-28T07:33:09.951Z,90.40
2018-04-28T07:35:37.460Z,90.90
2018-04-28T07:38:05.740Z,89.00
2018-04-28T07:40:34.005Z,89.40
2018-04-28T07:43:02.293Z,90.00
2018-04-28T07:45:30.557Z,88.30
2018-04-28T07:47:58.857Z,88.10
2018-04-28T07:50:26.353Z,88.10
2018-04-28T07:52:53.844Z,88.70
2018-04-28T07:55:21.389Z,87.70
2018-04-28T07:57:48.883Z,89.00
2018-04-28T08:00:17.248Z,87.20
2018-04-28T08:02:44.684Z,87.20
2018-04-28T08:05:12.209Z,87.40
2018-04-28T08:07:39.763Z,85.40
2018-04-28T08:10:07.257Z,85.70
2018-04-28T08:12:34.777Z,85.00
2018-04-28T08:15:02.273Z,84.80
2018-04-28T08:17:29.788Z,85.20
2018-04-28T08:19:57.287Z,84.90
2018-04-28T08:22:24.813Z,84.90
2018-04-28T08:24:52.317Z,83.50
2018-04-28T08:27:19.813Z,83.30
2018-04-28T08:29:48.102Z,83.50
2018-04-28T08:32:15.601Z,83.50
2018-04-28T08:34:43.129Z,83.80
2018-04-28T08:37:10.653Z,83.40
2018-04-28T08:39:38.160Z,82.60
2018-04-28T08:42:05.656Z,82.80
2018-04-28T08:44:33.185Z,82.60
2018-04-28T08:47:00.692Z,83.40
2018-04-28T08:49:28.976Z,82.70
2018-04-28T08:51:57.240Z,83.00
2018-04-28T08:54:25.500Z,83.00
2018-04-28T08:56:53.021Z,82.30
2018-04-28T08:59:20.526Z,82.40
2018-04-28T09:01:48.051Z,82.20
2018-04-28T09:04:15.557Z,82.10
2018-04-28T09:06:58.713Z,80.00
2018-04-28T09:09:26.212Z,79.90
2018-04-28T09:11:53.734Z,80.10
2018-04-28T09:14:21.233Z,79.10
2018-04-28T09:16:48.750Z,77.60
2018-04-28T09:19:16.249Z,78.90
2018-04-28T09:21:43.769Z,77.50
2018-04-28T09:24:11.273Z,78.00
2018-04-28T09:26:38.797Z,76.00
2018-04-28T09:29:06.340Z,77.00
2018-04-28T09:31:34.572Z,75.00
2018-04-28T09:34:02.092Z,75.00
2018-04-28T09:36:29.589Z,75.00
2018-04-28T09:38:57.110Z,74.40
2018-04-28T09:41:24.607Z,74.10
2018-04-28T09:43:52.133Z,73.00
2018-04-28T09:46:19.668Z,73.70
2018-04-28T09:48:47.915Z,72.40
2018-04-28T09:51:16.206Z,71.80
2018-04-28T09:53:44.471Z,71.50
2018-04-28T09:56:12.760Z,71.80
2018-04-28T09:58:41.036Z,72.10
2018-04-28T10:01:08.560Z,72.10
2018-04-28T10:03:36.066Z,73.00
2018-04-28T10:06:03.589Z,71.80
2018-04-28T10:08:31.092Z,71.70
2018-04-28T10:10:58.596Z,70.00
2018-04-28T10:13:26.112Z,69.50
2018-04-28T10:15:53.670Z,69.60
2018-04-28T10:18:21.921Z,67.50
2018-04-28T10:20:50.181Z,66.30
2018-04-28T10:23:17.701Z,66.20
2018-04-28T10:25:45.201Z,65.30
2018-04-28T10:28:12.717Z,64.30
2018-04-28T10:30:40.213Z,61.90
2018-04-28T10:33:07.736Z,62.70
2018-04-28T10:35:35.229Z,61.90
2018-04-28T10:38:02.733Z,61.50
2018-04-28T10:40:30.253Z,60.30
2018-04-28T10:42:57.753Z,58.80
2018-04-28T10:45:25.276Z,60.90
2018-04-28T10:47:53.549Z,59.50
2018-04-28T10:50:21.837Z,60.00
2018-04-28T10:52:50.109Z,59.70
2018-04-28T10:55:18.518Z,59.70
2018-04-28T10:57:46.046Z,59.70
2018-04-28T11:00:13.538Z,59.10
2018-04-28T11:02:41.056Z,58.20
2018-04-28T11:05:08.558Z,58.20
2018-04-28T11:07:36.077Z,58.90
2018-04-28T11:10:03.584Z,58.50
2018-04-28T11:12:31.104Z,59.30
2018-04-28T11:14:59.369Z,58.10
2018-04-28T11:17:26.865Z,58.10
2018-04-28T11:19:54.393Z,57.60
2018-04-28T11:22:22.660Z,55.90
2018-04-28T11:24:50.185Z,55.90
2018-04-28T11:27:17.680Z,57.20
2018-04-28T11:29:45.200Z,57.10
2018-04-28T11:32:12.697Z,56.70
2018-04-28T11:34:40.220Z,57.40
2018-04-28T11:37:07.727Z,56.60
2018-04-28T11:39:35.990Z,56.20
2018-04-28T11:42:03.513Z,56.20
2018-04-28T11:44:31.014Z,57.10
2018-04-28T11:46:58.528Z,58.10
2018-04-28T11:49:26.025Z,58.10
2018-04-28T11:51:53.541Z,59.10
2018-04-28T11:54:21.041Z,60.80
2018-04-28T11:56:48.541Z,60.60
2018-04-28T11:59:16.171Z,61.70
2018-04-28T12:01:43.601Z,62.40
2018-04-28T12:04:11.117Z,62.90
2018-04-28T12:06:38.609Z,64.20
2018-04-28T12:09:06.313Z,64.90
2018-04-28T12:11:34.576Z,65.70
2018-04-28T12:14:02.098Z,65.70
2018-04-28T12:16:29.598Z,66.20
2018-04-28T12:18:57.094Z,66.10
2018-04-28T12:21:24.612Z,66.70
2018-04-28T12:23:52.113Z,66.00
2018-04-28T12:26:19.636Z,66.30
2018-04-28T12:28:47.901Z,67.00
2018-04-28T12:31:15.421Z,66.90
2018-04-28T12:33:42.922Z,66.70
2018-04-28T12:36:10.417Z,67.40
2018-04-28T12:38:37.933Z,67.70
2018-04-28T12:41:05.431Z,68.20
2018-04-28T12:43:32.953Z,68.20
2018-04-28T12:46:00.449Z,67.50
2018-04-28T12:48:27.978Z,67.80
2018-04-28T12:50:55.481Z,68.90
2018-04-28T12:53:22.979Z,68.90
2018-04-28T12:55:50.497Z,69.00
2018-04-28T12:58:17.997Z,68.60
2018-04-28T13:00:45.517Z,68.40
2018-04-28T13:03:13.013Z,68.60
2018-04-28T13:05:40.533Z,69.10
2018-04-28T13:08:08.029Z,65.70
2018-04-28T13:10:35.550Z,66.40
2018-04-28T13:13:03.054Z,65.30
2018-04-28T13:15:30.557Z,63.20
2018-04-28T13:17:58.077Z,62.10
2018-04-28T13:20:25.581Z,60.40
2018-04-28T13:22:53.180Z,61.70
2018-04-28T13:25:21.384Z,60.90
2018-04-28T13:27:48.901Z,60.80
2018-04-28T13:30:16.401Z,59.40
2018-04-28T13:32:43.929Z,58.80
2018-04-28T13:35:11.422Z,57.50
2018-04-28T13:37:39.685Z,58.50
2018-04-28T13:40:07.205Z,58.60
2018-04-28T13:42:34.705Z,57.10
2018-04-28T13:45:02.229Z,56.80
2018-04-28T13:47:29.720Z,56.40
2018-04-28T13:49:57.248Z,49.50
2018-04-28T13:52:24.745Z,48.40
2018-04-28T13:54:52.237Z,47.00
2018-04-28T13:57:19.757Z,47.30
2018-04-28T13:59:48.756Z,44.20
2018-04-28T14:02:16.276Z,44.10
2018-04-28T14:04:43.771Z,44.20
2018-04-28T14:07:11.290Z,46.10
2018-04-28T14:09:38.847Z,44.00
2018-04-28T14:12:07.066Z,44.40
2018-04-28T14:14:34.586Z,44.30
2018-04-28T14:17:02.087Z,44.40
2018-04-28T14:19:29.601Z,44.20
2018-04-28T14:21:57.105Z,45.30
2018-04-28T14:24:24.620Z,44.80
2018-04-28T14:26:52.203Z,46.40
2018-04-28T14:29:20.401Z,44.50
2018-04-28T14:31:47.921Z,44.40
2018-04-28T14:34:15.428Z,44.50
2018-04-28T14:36:43.717Z,46.50
2018-04-28T14:39:11.217Z,46.50
2018-04-28T14:41:38.741Z,46.20
2018-04-28T14:44:06.233Z,46.40
2018-04-28T14:46:33.725Z,47.00
2018-04-28T14:49:01.246Z,46.80
2018-04-28T14:51:28.747Z,44.10
2018-04-28T14:53:57.027Z,45.50
2018-04-28T14:56:25.292Z,45.20
2018-04-28T14:58:52.814Z,45.20
2018-04-28T15:01:20.333Z,44.70
2018-04-28T15:03:48.585Z,44.60
2018-04-28T15:06:16.104Z,44.50
2018-04-28T15:08:43.605Z,43.80
2018-04-28T15:11:11.132Z,44.70
2018-04-28T15:13:38.629Z,45.40
2018-04-28T15:16:06.918Z,46.70
2018-04-28T15:18:35.180Z,46.00
2018-04-28T15:21:02.683Z,45.90
2018-04-28T15:23:30.201Z,46.60
2018-04-28T15:25:58.462Z,48.10
2018-04-28T15:28:25.981Z,47.30
2018-04-28T15:30:53.477Z,47.40
2018-04-28T15:33:21.001Z,46.70
2018-04-28T15:35:48.497Z,47.00
2018-04-28T15:38:17.493Z,43.00
2018-04-28T15:40:45.010Z,42.90
2018-04-28T15:43:12.558Z,43.00
2018-04-28T15:45:40.085Z,41.70
2018-04-28T15:48:08.349Z,46.20
2018-04-28T15:50:35.868Z,46.20
2018-04-28T15:53:03.361Z,45.80
2018-04-28T15:55:30.880Z,46.60
2018-04-28T15:57:58.377Z,46.70
2018-04-28T16:00:25.878Z,47.10
2018-04-28T16:02:53.400Z,47.80
2018-04-28T16:05:20.902Z,48.10
2018-04-28T16:07:48.433Z,48.10
2018-04-28T16:10:16.693Z,47.80
2018-04-28T16:12:44.217Z,47.70
2018-04-28T16:15:11.721Z,48.20
2018-04-28T16:17:39.237Z,47.90
2018-04-28T16:20:06.733Z,45.30
2018-04-28T16:22:34.230Z,46.30
2018-04-28T16:25:01.762Z,47.10
2018-04-28T16:27:30.105Z,48.90
2018-04-28T16:29:58.328Z,48.70
2018-04-28T16:32:26.593Z,48.80
2018-04-28T16:34:54.882Z,49.60
2018-04-28T16:37:22.385Z,49.50
2018-04-28T16:39:49.885Z,49.20
2018-04-28T16:42:17.404Z,50.00
2018-04-28T16:44:44.900Z,50.40
2018-04-28T16:47:12.421Z,50.40
2018-04-28T16:49:39.921Z,47.70
2018-04-28T16:52:08.209Z,46.50
2018-04-28T16:54:36.473Z,47.50
2018-04-28T16:57:04.765Z,47.90
2018-04-28T16:59:33.034Z,46.50
2018-04-28T17:02:01.297Z,46.70
2018-04-28T17:04:28.821Z,46.50
2018-04-28T17:06:56.317Z,46.00
2018-04-28T17:09:23.837Z,46.20
2018-04-28T17:11:51.333Z,45.50
2018-04-28T17:14:18.853Z,46.50
2018-04-28T17:16:46.345Z,46.70
2018-04-28T17:19:13.844Z,46.10
2018-04-28T17:21:41.365Z,46.30
2018-04-28T17:24:08.869Z,47.80
2018-04-28T17:26:36.393Z,47.20
2018-04-28T17:29:04.658Z,47.20
2018-04-28T17:31:32.182Z,47.10
2018-04-28T17:33:59.685Z,47.50
2018-04-28T17:36:27.944Z,48.00
2018-04-28T17:38:55.477Z,48.00
2018-04-28T17:41:22.979Z,48.20
2018-04-28T17:43:51.483Z,48.30
2018-04-28T17:46:18.985Z,48.30
2018-04-28T17:48:46.509Z,49.40
2018-04-28T17:51:14.004Z,49.20
2018-04-28T17:53:41.497Z,49.20
2018-04-28T17:56:09.782Z,50.50
2018-04-28T17:58:37.281Z,50.50
2018-04-28T18:01:04.805Z,51.00
2018-04-28T18:03:32.305Z,51.40
2018-04-28T18:05:59.829Z,51.00
2018-04-28T18:08:27.330Z,51.40
2018-04-28T18:10:54.832Z,51.70
2018-04-28T18:13:23.117Z,52.00
2018-04-28T18:15:50.608Z,52.00
2018-04-28T18:18:18.153Z,52.40
2018-04-28T18:20:45.645Z,53.60
2018-04-28T18:23:13.161Z,53.50
2018-04-28T18:25:40.660Z,53.60
2018-04-28T18:28:08.160Z,54.00
2018-04-28T18:30:36.733Z,54.70
2018-04-28T18:33:04.996Z,55.60
2018-04-28T18:35:32.518Z,55.50
2018-04-28T18:38:00.017Z,55.50
2018-04-28T18:40:27.545Z,55.20
2018-04-28T18:42:55.046Z,55.70
2018-04-28T18:45:23.315Z,56.60
2018-04-28T18:47:51.605Z,56.90
2018-04-28T18:50:19.869Z,57.00
2018-04-28T18:52:47.394Z,57.00
2018-04-28T18:55:14.893Z,56.80
2018-04-28T18:57:43.182Z,57.80
2018-04-28T19:00:11.445Z,57.20
2018-04-28T19:02:38.969Z,57.10
2018-04-28T19:05:06.463Z,57.00
2018-04-28T19:07:33.961Z,57.50
2018-04-28T19:10:01.476Z,57.80
2018-04-28T19:12:28.978Z,58.90
2018-04-28T19:14:56.496Z,58.60
2018-04-28T19:17:23.994Z,58.40
2018-04-28T19:19:51.521Z,58.90
2018-04-28T19:22:19.785Z,59.70
2018-04-28T19:24:48.063Z,59.50
2018-04-28T19:27:15.586Z,59.50
2018-04-28T19:29:43.084Z,59.60
2018-04-28T19:32:11.376Z,60.30
2018-04-28T19:34:39.636Z,60.20
2018-04-28T19:37:07.152Z,60.10
2018-04-28T19:39:34.652Z,59.60
2018-04-28T19:42:02.173Z,60.10
2018-04-28T19:44:29.673Z,60.30
2018-04-28T19:46:57.174Z,60.50
2018-04-28T19:49:24.697Z,60.90
2018-04-28T19:51:52.960Z,61.50
2018-04-28T19:54:20.523Z,61.10
2018-04-28T19:56:47.996Z,61.40
2018-04-28T19:59:16.290Z,62.60
2018-04-28T20:01:43.789Z,62.40
2018-04-28T20:04:11.309Z,62.70
2018-04-28T20:06:38.808Z,62.90
2018-04-28T20:09:06.308Z,63.30
2018-04-28T20:11:34.597Z,64.50
2018-04-28T20:14:02.867Z,64.90
2018-04-28T20:16:31.238Z,64.80
2018-04-28T20:18:58.685Z,64.70
2018-04-28T20:21:26.217Z,65.50
2018-04-28T20:24:05.464Z,65.80
2018-04-28T20:26:32.985Z,66.20
2018-04-28T20:29:00.481Z,66.00
2018-04-28T20:31:28.009Z,65.70
2018-04-28T20:33:55.509Z,66.00
2018-04-28T20:36:23.004Z,66.50
2018-04-28T20:38:50.540Z,66.30
2018-04-28T20:41:18.813Z,66.70
2018-04-28T20:43:46.338Z,66.70
2018-04-28T20:46:13.833Z,66.60
2018-04-28T20:48:42.121Z,67.20
2018-04-28T20:51:10.377Z,67.10
2018-04-28T20:53:37.873Z,67.10
2018-04-28T20:56:05.392Z,66.40
2018-04-28T20:58:32.893Z,66.40
2018-04-28T21:01:00.413Z,66.90
2018-04-28T21:03:27.913Z,66.70
2018-04-28T21:05:55.433Z,66.00
2018-04-28T21:08:22.936Z,65.30
2018-04-28T21:10:50.434Z,65.90
2018-04-28T21:13:19.457Z,65.80
2018-04-28T21:15:47.721Z,65.30
2018-04-28T21:18:16.009Z,65.70
2018-04-28T21:20:44.273Z,65.80
2018-04-28T21:23:11.797Z,65.70
2018-04-28T21:25:39.293Z,65.80
2018-04-28T21:28:06.818Z,64.80
2018-04-28T21:30:34.325Z,64.00
2018-04-28T21:33:02.601Z,64.50
2018-04-28T21:35:30.898Z,63.80
2018-04-28T21:37:58.397Z,63.80
2018-04-28T21:40:25.919Z,64.20
2018-04-28T21:42:53.420Z,64.70
2018-04-28T21:45:20.945Z,65.30
2018-04-28T21:47:48.442Z,64.00
2018-04-28T21:50:15.969Z,61.90
2018-04-28T21:52:43.465Z,61.80
2018-04-28T21:55:10.966Z,59.90
2018-04-28T21:57:38.485Z,59.60
2018-04-28T22:00:05.985Z,59.70
2018-04-28T22:02:33.504Z,59.30
2018-04-28T22:05:01.001Z,58.90
2018-04-28T22:07:28.521Z,59.20
2018-04-28T22:09:56.129Z,59.70
2018-04-28T22:12:23.653Z,59.50
2018-04-28T22:14:51.917Z,58.80
2018-04-28T22:17:19.408Z,58.70
2018-04-28T22:19:46.929Z,58.90
2018-04-28T22:22:14.424Z,59.40
2018-04-28T22:24:41.940Z,59.60
2018-04-28T22:27:09.437Z,59.10
2018-04-28T22:29:37.728Z,59.10
2018-04-28T22:32:05.233Z,59.10
2018-04-28T22:34:32.749Z,58.90
2018-04-28T22:37:00.248Z,58.80
2018-04-28T22:39:27.745Z,58.20
2018-04-28T22:41:56.033Z,58.50
2018-04-28T22:44:23.537Z,59.10
2018-04-28T22:46:51.061Z,58.40
2018-04-28T22:49:18.557Z,58.90
2018-04-28T22:51:46.080Z,59.60
2018-04-28T22:54:13.581Z,60.40
2018-04-28T22:56:41.869Z,61.50
2018-04-28T22:59:09.376Z,61.40
2018-04-28T23:01:36.877Z,61.80
2018-04-28T23:04:04.397Z,61.90
2018-04-28T23:06:31.897Z,62.10
2018-04-28T23:08:59.417Z,62.80
2018-04-28T23:11:26.913Z,62.70
2018-04-28T23:13:55.196Z,62.30
2018-04-28T23:16:22.693Z,62.30
2018-04-28T23:18:50.222Z,62.20
2018-04-28T23:21:18.488Z,62.40
2018-04-28T23:23:46.018Z,62.40
2018-04-28T23:26:13.514Z,61.70
2018-04-28T23:28:41.038Z,62.60
2018-04-28T23:31:08.532Z,62.00
2018-04-28T23:33:36.822Z,62.80
2018-04-28T23:36:05.092Z,62.70
2018-04-28T23:38:33.353Z,66.20
2018-04-28T23:41:01.638Z,66.60
2018-04-28T23:43:29.134Z,66.50
2018-04-28T23:45:56.649Z,68.50
2018-04-28T23:48:24.908Z,77.60
2018-04-28T23:50:52.440Z,77.60
2018-04-28T23:53:19.939Z,80.80
2018-04-28T23:55:47.464Z,81.20
2018-04-28T23:58:14.961Z,80.70
